createdAt,value
2018-02-20T00:02:01.954Z,39.20
2018-02-20T00:04:32.648Z,40.60
2018-02-20T00:07:01.094Z,40.20
2018-02-20T00:09:29.542Z,40.50
2018-02-20T00:11:58.911Z,48.75
2018-02-20T00:14:27.500Z,41.05
2018-02-20T00:16:56.064Z,44.83
2018-02-20T00:19:24.592Z,40.17
2018-02-20T00:21:53.108Z,40.00
2018-02-20T00:24:21.631Z,38.70
2018-02-20T00:26:50.631Z,38.88
2018-02-20T00:29:19.064Z,38.97
2018-02-20T00:31:47.537Z,39.42
2018-02-20T00:34:16.099Z,40.45
2018-02-20T00:36:44.535Z,39.72
2018-02-20T00:39:13.230Z,37.50
2018-02-20T00:41:41.868Z,39.50
2018-02-20T00:44:10.618Z,38.97
2018-02-20T00:46:39.213Z,37.90
2018-02-20T00:49:08.054Z,39.05
2018-02-20T00:51:36.512Z,41.28
2018-02-20T00:54:05.040Z,38.13
2018-02-20T00:56:33.935Z,38.00
2018-02-20T00:59:02.490Z,39.05
2018-02-20T01:01:30.950Z,36.65
2018-02-20T01:03:59.506Z,38.30
2018-02-20T01:06:27.986Z,36.17
2018-02-20T01:08:56.442Z,38.95
2018-02-20T01:11:25.072Z,36.70
2018-02-20T01:13:53.541Z,37.50
2018-02-20T01:16:25.327Z,39.70
2018-02-20T01:18:53.833Z,39.55
2018-02-20T01:21:22.394Z,38.97
2018-02-20T01:23:52.862Z,39.00
2018-02-20T01:26:21.554Z,40.22
2018-02-20T01:28:50.030Z,37.88
2018-02-20T01:31:19.237Z,40.40
2018-02-20T01:33:47.845Z,36.72
2018-02-20T01:36:16.686Z,39.40
2018-02-20T01:38:45.131Z,39.33
2018-02-20T01:41:13.636Z,39.55
2018-02-20T01:43:42.117Z,37.90
2018-02-20T01:46:10.575Z,38.97
2018-02-20T01:48:39.259Z,39.53
2018-02-20T01:51:08.642Z,39.50
2018-02-20T01:53:37.245Z,40.92
2018-02-20T01:56:05.839Z,39.20
2018-02-20T01:58:35.438Z,39.25
2018-02-20T02:01:04.122Z,40.92
2018-02-20T02:03:32.810Z,42.10
2018-02-20T02:06:01.276Z,40.72
2018-02-20T02:08:29.790Z,40.60
2018-02-20T02:10:58.455Z,44.10
2018-02-20T02:13:26.928Z,40.55
2018-02-20T02:15:55.713Z,43.15
2018-02-20T02:18:24.575Z,40.03
2018-02-20T02:20:53.078Z,42.62
2018-02-20T02:23:21.502Z,44.30
2018-02-20T02:25:50.658Z,39.42
2018-02-20T02:28:19.175Z,39.30
2018-02-20T02:30:47.823Z,42.10
2018-02-20T02:33:16.573Z,40.95
2018-02-20T02:35:45.019Z,41.75
2018-02-20T02:38:13.435Z,41.25
2018-02-20T02:40:41.998Z,43.55
2018-02-20T02:43:10.431Z,42.17
2018-02-20T02:45:38.860Z,42.20
2018-02-20T02:48:07.750Z,42.10
2018-02-20T02:50:36.210Z,43.28
2018-02-20T02:53:04.792Z,40.12
2018-02-20T02:55:33.472Z,42.10
2018-02-20T02:58:02.063Z,42.53
2018-02-20T03:00:32.542Z,41.65
2018-02-20T03:03:01.034Z,42.88
2018-02-20T03:05:29.621Z,41.97
2018-02-20T03:07:58.078Z,41.28
2018-02-20T03:10:26.689Z,41.03
2018-02-20T03:12:55.129Z,44.05
2018-02-20T03:15:23.672Z,40.63
2018-02-20T03:17:52.430Z,39.80
2018-02-20T03:20:20.871Z,41.25
2018-02-20T03:22:49.295Z,41.50
2018-02-20T03:25:17.774Z,41.95
2018-02-20T03:27:46.224Z,39.00
2018-02-20T03:30:14.659Z,41.08
2018-02-20T03:32:43.114Z,39.53
2018-02-20T03:35:11.603Z,44.90
2018-02-20T03:37:40.072Z,38.83
2018-02-20T03:40:09.478Z,40.15
2018-02-20T03:42:38.028Z,44.15
2018-02-20T03:45:06.578Z,42.13
2018-02-20T03:47:35.135Z,43.55
2018-02-20T03:50:03.722Z,43.03
2018-02-20T03:52:32.601Z,43.65
2018-02-20T03:55:01.229Z,41.60
2018-02-20T03:57:29.748Z,42.67
2018-02-20T03:59:58.434Z,42.90
2018-02-20T04:02:28.118Z,42.75
2018-02-20T04:04:56.675Z,42.28
2018-02-20T04:07:25.154Z,42.70
2018-02-20T04:09:53.618Z,44.03
2018-02-20T04:12:22.065Z,41.50
2018-02-20T04:14:50.489Z,40.80
2018-02-20T04:17:18.975Z,41.90
2018-02-20T04:19:47.616Z,43.97
2018-02-20T04:22:16.110Z,40.75
2018-02-20T04:24:44.944Z,40.12
2018-02-20T04:27:13.367Z,41.92
2018-02-20T04:29:42.573Z,41.53
2018-02-20T04:32:11.033Z,38.95
2018-02-20T04:34:39.478Z,39.55
2018-02-20T04:37:07.995Z,40.65
2018-02-20T04:39:36.509Z,42.90
2018-02-20T04:42:04.989Z,41.28
2018-02-20T04:44:33.460Z,41.17
2018-02-20T04:47:02.352Z,42.00
2018-02-20T04:49:30.805Z,43.17
2018-02-20T04:51:59.307Z,42.08
2018-02-20T04:54:27.969Z,42.33
2018-02-20T04:56:56.425Z,41.08
2018-02-20T04:59:25.032Z,40.25
2018-02-20T05:01:54.099Z,43.70
2018-02-20T05:04:22.633Z,43.50
2018-02-20T05:06:51.097Z,40.92
2018-02-20T05:09:19.572Z,42.65
2018-02-20T05:11:48.048Z,40.78
2018-02-20T05:14:17.053Z,39.72
2018-02-20T05:16:45.735Z,45.03
2018-02-20T05:19:14.183Z,41.45
2018-02-20T05:21:42.641Z,41.37
2018-02-20T05:24:11.485Z,42.70
2018-02-20T05:26:39.953Z,42.70
2018-02-20T05:29:08.675Z,42.08
2018-02-20T05:31:37.329Z,44.22
2018-02-20T05:34:05.918Z,38.85
2018-02-20T05:36:34.500Z,39.38
2018-02-20T05:39:03.371Z,40.28
2018-02-20T05:41:32.308Z,41.88
2018-02-20T05:44:00.747Z,40.33
2018-02-20T05:46:29.510Z,41.55
2018-02-20T05:48:58.017Z,41.53
2018-02-20T05:51:26.502Z,41.75
2018-02-20T05:53:55.270Z,41.58
2018-02-20T05:56:23.733Z,37.47
2018-02-20T05:58:52.171Z,40.60
2018-02-20T06:01:20.628Z,42.65
2018-02-20T06:03:49.050Z,42.13
2018-02-20T06:06:17.609Z,43.17
2018-02-20T06:08:46.074Z,42.95
2018-02-20T06:11:14.517Z,44.58
2018-02-20T06:13:43.032Z,40.30
2018-02-20T06:16:11.582Z,39.90
2018-02-20T06:18:40.093Z,41.55
2018-02-20T06:21:08.605Z,41.20
2018-02-20T06:23:37.419Z,42.90
2018-02-20T06:26:05.921Z,40.80
2018-02-20T06:28:34.546Z,40.75
2018-02-20T06:31:04.025Z,41.13
2018-02-20T06:33:32.541Z,40.53
2018-02-20T06:36:00.988Z,40.65
2018-02-20T06:38:29.497Z,41.30
2018-02-20T06:40:57.943Z,41.15
2018-02-20T06:43:26.430Z,40.55
2018-02-20T06:45:54.935Z,40.80
2018-02-20T06:48:23.366Z,40.38
2018-02-20T06:50:51.872Z,38.75
2018-02-20T06:53:20.343Z,41.72
2018-02-20T06:55:48.837Z,42.45
2018-02-20T06:58:17.351Z,40.90
2018-02-20T07:00:45.953Z,38.45
2018-02-20T07:03:14.365Z,39.10
2018-02-20T07:05:42.841Z,43.00
2018-02-20T07:08:11.659Z,42.65
2018-02-20T07:10:40.252Z,38.92
2018-02-20T07:13:08.923Z,39.33
2018-02-20T07:15:37.518Z,40.58
2018-02-20T07:18:06.047Z,40.72
2018-02-20T07:20:34.556Z,40.08
2018-02-20T07:23:04.316Z,41.30
2018-02-20T07:25:32.881Z,40.20
2018-02-20T07:28:01.453Z,39.45
2018-02-20T07:30:30.184Z,35.58
2018-02-20T07:32:58.928Z,38.90
2018-02-20T07:35:27.347Z,39.00
2018-02-20T07:37:55.812Z,35.10
2018-02-20T07:40:24.344Z,35.40
2018-02-20T07:42:52.817Z,37.40
2018-02-20T07:45:21.350Z,34.83
2018-02-20T07:47:49.856Z,32.33
2018-02-20T07:50:18.359Z,37.25
2018-02-20T07:52:47.037Z,37.67
2018-02-20T07:55:15.707Z,37.42
2018-02-20T07:57:44.170Z,37.92
2018-02-20T08:00:13.096Z,34.90
2018-02-20T08:02:42.500Z,35.58
2018-02-20T08:05:11.293Z,34.38
2018-02-20T08:07:40.075Z,38.25
2018-02-20T08:10:08.557Z,36.80
2018-02-20T08:12:37.447Z,33.85
2018-02-20T08:15:06.308Z,37.00
2018-02-20T08:17:34.817Z,37.88
2018-02-20T08:20:03.401Z,36.60
2018-02-20T08:22:32.089Z,34.00
2018-02-20T08:25:04.174Z,38.17
2018-02-20T08:27:32.738Z,36.78
2018-02-20T08:30:01.733Z,35.75
2018-02-20T08:32:31.030Z,36.75
2018-02-20T08:34:59.890Z,39.00
2018-02-20T08:37:28.393Z,35.38
2018-02-20T08:39:56.945Z,35.75
2018-02-20T08:42:25.433Z,36.65
2018-02-20T08:44:54.041Z,34.30
2018-02-20T08:47:22.526Z,35.42
2018-02-20T08:49:51.060Z,34.78
2018-02-20T08:52:19.557Z,39.35
2018-02-20T08:54:48.546Z,34.20
2018-02-20T08:57:18.034Z,35.22
2018-02-20T08:59:46.790Z,37.78
2018-02-20T09:02:15.216Z,38.38
2018-02-20T09:04:43.853Z,34.38
2018-02-20T09:07:12.723Z,34.25
2018-02-20T09:09:41.170Z,35.00
2018-02-20T09:12:10.088Z,34.85
2018-02-20T09:14:38.601Z,34.45
2018-02-20T09:17:07.387Z,32.88
2018-02-20T09:19:39.453Z,33.28
2018-02-20T09:22:08.038Z,30.85
2018-02-20T09:24:36.591Z,32.45
2018-02-20T09:27:05.246Z,29.65
2018-02-20T09:29:33.779Z,32.65
2018-02-20T09:32:02.688Z,32.13
2018-02-20T09:34:31.255Z,30.05
2018-02-20T09:36:59.847Z,30.62
2018-02-20T09:39:28.288Z,28.30
2018-02-20T09:41:57.120Z,28.20
2018-02-20T09:44:25.575Z,27.65
2018-02-20T09:46:54.031Z,25.55
2018-02-20T09:49:22.484Z,28.05
2018-02-20T09:51:50.917Z,25.67
2018-02-20T09:54:19.378Z,28.35
2018-02-20T09:56:48.026Z,26.50
2018-02-20T09:59:16.515Z,24.95
2018-02-20T10:01:45.161Z,28.10
2018-02-20T10:04:14.409Z,24.40
2018-02-20T10:06:42.938Z,25.50
2018-02-20T10:09:11.823Z,25.80
2018-02-20T10:11:40.462Z,25.83
2018-02-20T10:14:08.948Z,22.55
2018-02-20T10:16:37.625Z,24.10
2018-02-20T10:19:06.260Z,24.95
2018-02-20T10:21:34.797Z,22.40
2018-02-20T10:24:03.636Z,23.80
2018-02-20T10:26:33.091Z,23.38
2018-02-20T10:29:02.401Z,26.83
2018-02-20T10:31:31.096Z,24.42
2018-02-20T10:33:59.675Z,22.75
2018-02-20T10:36:28.340Z,24.52
2018-02-20T10:41:30.859Z,25.33
2018-02-20T10:43:59.349Z,25.08
2018-02-20T10:46:27.901Z,25.80
2018-02-20T10:48:56.553Z,24.58
2018-02-20T10:51:25.037Z,24.90
2018-02-20T10:53:53.589Z,23.52
2018-02-20T10:56:22.461Z,25.35
2018-02-20T10:58:50.986Z,24.42
2018-02-20T11:01:19.474Z,23.65
2018-02-20T11:03:49.025Z,23.92
2018-02-20T11:06:17.586Z,25.15
2018-02-20T11:08:46.090Z,23.90
2018-02-20T11:11:14.884Z,25.60
2018-02-20T11:13:43.493Z,26.50
2018-02-20T11:16:12.377Z,22.15
2018-02-20T11:18:41.189Z,23.40
2018-02-20T11:21:09.847Z,25.85
2018-02-20T11:23:38.573Z,25.92
2018-02-20T11:26:07.251Z,22.98
2018-02-20T11:28:35.778Z,27.52
2018-02-20T11:31:04.369Z,27.52
2018-02-20T11:33:33.154Z,26.20
2018-02-20T11:36:01.736Z,29.23
2018-02-20T11:38:30.281Z,26.87
2018-02-20T11:40:59.173Z,24.85
2018-02-20T11:43:27.756Z,26.65
2018-02-20T11:45:56.240Z,24.27
2018-02-20T11:48:24.858Z,24.17
2018-02-20T11:50:53.361Z,26.73
2018-02-20T11:53:21.818Z,24.23
2018-02-20T11:55:51.274Z,27.98
2018-02-20T11:58:19.820Z,24.92
2018-02-20T12:00:48.389Z,25.75
2018-02-20T12:03:16.974Z,27.13
2018-02-20T12:05:45.522Z,24.10
2018-02-20T12:08:14.036Z,21.90
2018-02-20T12:10:43.032Z,24.23
2018-02-20T12:13:12.226Z,19.83
2018-02-20T12:15:40.890Z,22.95
2018-02-20T12:18:09.905Z,23.65
2018-02-20T12:20:38.489Z,22.80
2018-02-20T12:23:07.196Z,22.15
2018-02-20T12:25:36.389Z,21.45
2018-02-20T12:28:04.978Z,21.98
2018-02-20T12:30:35.388Z,23.58
2018-02-20T12:33:04.001Z,24.40
2018-02-20T12:35:32.548Z,24.35
2018-02-20T12:38:05.327Z,26.75
2018-02-20T12:40:34.141Z,25.75
2018-02-20T12:43:02.702Z,27.45
2018-02-20T12:45:32.200Z,25.45
2018-02-20T12:48:00.943Z,27.77
2018-02-20T12:50:29.393Z,27.98
2018-02-20T12:52:58.055Z,27.13
2018-02-20T12:55:26.544Z,29.35
2018-02-20T12:57:54.975Z,29.37
2018-02-20T13:00:24.927Z,29.77
2018-02-20T13:02:54.125Z,32.47
2018-02-20T13:05:22.586Z,28.85
2018-02-20T13:07:51.783Z,29.15
2018-02-20T13:10:20.285Z,30.05
2018-02-20T13:12:48.862Z,29.63
2018-02-20T13:15:17.942Z,26.50
2018-02-20T13:17:46.465Z,28.98
2018-02-20T13:20:14.965Z,30.62
2018-02-20T13:22:44.303Z,31.00
2018-02-20T13:25:12.995Z,25.98
2018-02-20T13:27:41.722Z,26.00
2018-02-20T13:30:10.221Z,29.20
2018-02-20T13:32:39.083Z,28.83
2018-02-20T13:35:07.606Z,26.65
2018-02-20T13:37:36.209Z,28.10
2018-02-20T13:40:04.765Z,29.20
2018-02-20T13:42:34.171Z,24.70
2018-02-20T13:45:03.324Z,27.45
2018-02-20T13:47:31.909Z,25.88
2018-02-20T13:50:00.597Z,23.50
2018-02-20T13:52:30.501Z,24.12
2018-02-20T13:54:59.065Z,25.25
2018-02-20T13:57:27.509Z,26.77
2018-02-20T13:59:56.660Z,24.15
2018-02-20T14:02:25.180Z,25.85
2018-02-20T14:04:53.725Z,24.17
2018-02-20T14:07:22.365Z,22.60
2018-02-20T14:09:52.697Z,25.80
2018-02-20T14:12:21.404Z,20.15
2018-02-20T14:14:50.498Z,21.17
2018-02-20T14:17:19.515Z,24.05
2018-02-20T14:19:48.175Z,23.17
2018-02-20T14:22:17.005Z,19.27
2018-02-20T14:24:45.494Z,21.20
2018-02-20T14:27:13.953Z,22.60
2018-02-20T14:29:42.702Z,22.42
2018-02-20T14:32:11.223Z,21.50
2018-02-20T14:34:39.725Z,21.98
2018-02-20T14:37:08.454Z,20.67
2018-02-20T14:39:37.241Z,19.25
2018-02-20T14:42:05.842Z,23.12
2018-02-20T14:44:34.771Z,18.40
2018-02-20T14:47:03.326Z,20.00
2018-02-20T14:49:31.887Z,20.85
2018-02-20T14:52:00.834Z,24.45
2018-02-20T14:54:30.421Z,23.35
2018-02-20T14:56:58.940Z,21.75
2018-02-20T14:59:28.598Z,24.33
2018-02-20T15:01:58.162Z,21.95
2018-02-20T15:04:26.691Z,23.65
2018-02-20T15:06:55.316Z,21.98
2018-02-20T15:09:23.799Z,21.98
2018-02-20T15:11:52.429Z,20.92
2018-02-20T15:14:21.712Z,21.98
2018-02-20T15:16:50.169Z,23.70
2018-02-20T15:19:18.772Z,20.62
2018-02-20T15:21:48.196Z,22.75
2018-02-20T15:24:16.693Z,21.58
2018-02-20T15:26:45.719Z,23.62
2018-02-20T15:29:14.556Z,23.38
2018-02-20T15:31:43.161Z,25.33
2018-02-20T15:34:12.027Z,22.48
2018-02-20T15:36:40.763Z,22.87
2018-02-20T15:39:09.733Z,22.17
2018-02-20T15:41:38.535Z,20.65
2018-02-20T15:44:07.927Z,20.42
2018-02-20T15:46:37.637Z,20.75
2018-02-20T15:49:06.230Z,22.80
2018-02-20T15:51:35.976Z,24.45
2018-02-20T15:54:04.637Z,21.95
2018-02-20T15:56:33.628Z,21.73
2018-02-20T15:59:02.971Z,24.63
2018-02-20T16:01:31.639Z,22.05
2018-02-20T16:04:00.282Z,21.23
2018-02-20T16:06:29.359Z,22.98
2018-02-20T16:08:58.034Z,22.35
2018-02-20T16:11:26.606Z,21.73
2018-02-20T16:14:03.988Z,19.52
2018-02-20T16:16:33.065Z,20.58
2018-02-20T16:19:01.642Z,21.23
2018-02-20T16:21:30.163Z,20.65
2018-02-20T16:23:58.676Z,19.45
2018-02-20T16:26:27.205Z,20.85
2018-02-20T16:28:55.772Z,19.30
2018-02-20T16:31:24.256Z,22.00
2018-02-20T16:33:52.824Z,20.48
2018-02-20T16:36:22.134Z,19.50
2018-02-20T16:38:51.013Z,20.30
2018-02-20T16:41:19.920Z,19.40
2018-02-20T16:43:49.504Z,19.75
2018-02-20T16:46:17.993Z,20.37
2018-02-20T16:48:46.736Z,20.33
2018-02-20T16:51:15.261Z,19.45
2018-02-20T16:53:43.745Z,20.37
2018-02-20T16:56:12.453Z,21.45
2018-02-20T16:58:41.132Z,20.98
2018-02-20T17:01:09.760Z,20.05
2018-02-20T17:03:38.340Z,19.02
2018-02-20T17:06:07.533Z,17.75
2018-02-20T17:08:36.135Z,19.15
2018-02-20T17:11:04.875Z,17.37
2018-02-20T17:13:34.040Z,18.70
2018-02-20T17:16:02.951Z,19.75
2018-02-20T17:18:31.780Z,16.33
2018-02-20T17:21:01.045Z,17.67
2018-02-20T17:23:29.580Z,16.95
2018-02-20T17:25:58.827Z,16.80
2018-02-20T17:28:30.478Z,17.15
2018-02-20T17:30:58.965Z,17.52
2018-02-20T17:33:27.800Z,15.93
2018-02-20T17:35:56.582Z,15.43
2018-02-20T17:38:25.123Z,14.23
2018-02-20T17:40:53.698Z,15.55
2018-02-20T17:43:22.945Z,15.63
2018-02-20T17:45:51.614Z,16.02
2018-02-20T17:48:20.193Z,16.73
2018-02-20T17:50:48.829Z,15.25
2018-02-20T17:53:19.720Z,15.90
2018-02-20T17:55:49.846Z,16.50
2018-02-20T17:58:18.350Z,14.00
2018-02-20T18:00:47.635Z,15.55
2018-02-20T18:03:16.286Z,14.18
2018-02-20T18:05:45.098Z,14.52
2018-02-20T18:08:13.987Z,15.18
2018-02-20T18:10:45.015Z,16.60
2018-02-20T18:13:13.946Z,14.32
2018-02-20T18:15:42.493Z,14.05
2018-02-20T18:18:11.797Z,14.10
2018-02-20T18:20:40.813Z,16.92
2018-02-20T18:23:09.994Z,14.50
2018-02-20T18:25:38.961Z,15.40
2018-02-20T18:28:11.764Z,14.00
2018-02-20T18:30:41.830Z,14.13
2018-02-20T18:33:21.401Z,13.20
2018-02-20T18:35:50.297Z,13.27
2018-02-20T18:38:19.057Z,14.98
2018-02-20T18:40:47.630Z,14.40
2018-02-20T18:43:16.159Z,13.68
2018-02-20T18:45:45.356Z,13.93
2018-02-20T18:48:29.306Z,13.05
2018-02-20T18:50:58.441Z,14.55
2018-02-20T18:53:26.996Z,12.68
2018-02-20T18:55:56.262Z,15.70
2018-02-20T19:01:19.287Z,13.77
2018-02-20T19:03:49.606Z,11.65
2018-02-20T19:06:18.440Z,12.02
2018-02-20T19:08:48.775Z,12.10
2018-02-20T19:11:18.890Z,14.87
2018-02-20T19:13:49.911Z,13.85
2018-02-20T19:16:18.442Z,13.00
2018-02-20T19:18:47.456Z,17.62
2018-02-20T19:21:16.256Z,13.90
2018-02-20T19:23:45.113Z,16.10
2018-02-20T19:26:14.028Z,13.25
2018-02-20T19:28:45.983Z,13.57
2018-02-20T19:31:14.581Z,13.98
2018-02-20T19:33:43.668Z,13.65
2018-02-20T19:36:12.820Z,15.30
2018-02-20T19:38:41.656Z,14.55
2018-02-20T19:41:11.498Z,12.48
2018-02-20T19:43:41.259Z,13.23
2018-02-20T19:46:11.064Z,13.30
2018-02-20T19:48:39.868Z,15.25
2018-02-20T19:51:09.442Z,13.73
2018-02-20T19:53:38.341Z,12.00
2018-02-20T19:56:11.027Z,13.57
2018-02-20T19:58:40.251Z,13.20
2018-02-20T20:01:08.896Z,11.98
2018-02-20T20:03:38.375Z,15.02
2018-02-20T20:06:06.996Z,14.15
2018-02-20T20:08:35.597Z,14.02
2018-02-20T20:11:04.223Z,14.50
2018-02-20T20:13:33.023Z,13.85
2018-02-20T20:16:01.514Z,13.00
2018-02-20T20:18:30.286Z,14.20
2018-02-20T20:20:58.779Z,13.60
2018-02-20T20:23:27.339Z,12.90
2018-02-20T20:25:57.041Z,16.17
2018-02-20T20:28:26.648Z,14.52
2018-02-20T20:30:55.136Z,13.60
2018-02-20T20:33:24.210Z,14.57
2018-02-20T20:35:52.844Z,14.05
2018-02-20T20:38:21.420Z,13.68
2018-02-20T20:40:50.005Z,13.50
2018-02-20T20:43:18.587Z,14.90
2018-02-20T20:45:47.288Z,15.05
2018-02-20T20:48:16.597Z,16.17
2018-02-20T20:50:45.051Z,13.77
2018-02-20T20:53:13.650Z,15.40
2018-02-20T20:55:42.353Z,14.25
2018-02-20T20:58:11.174Z,14.75
2018-02-20T21:00:39.789Z,15.85
2018-02-20T21:03:09.909Z,17.23
2018-02-20T21:05:39.025Z,14.80
2018-02-20T21:08:09.248Z,15.00
2018-02-20T21:10:37.946Z,14.90
2018-02-20T21:13:06.762Z,17.95
2018-02-20T21:15:35.877Z,16.23
2018-02-20T21:18:04.798Z,16.73
2018-02-20T21:20:34.532Z,15.52
2018-02-20T21:23:03.770Z,17.25
2018-02-20T21:25:34.289Z,16.17
2018-02-20T21:28:02.963Z,19.62
2018-02-20T21:30:31.636Z,17.02
2018-02-20T21:33:00.790Z,15.10
2018-02-20T21:35:29.430Z,15.75
2018-02-20T21:37:57.956Z,16.40
2018-02-20T21:40:26.901Z,16.52
2018-02-20T21:42:55.470Z,18.05
2018-02-20T21:45:24.124Z,15.85
2018-02-20T21:47:52.720Z,14.23
2018-02-20T21:50:23.481Z,17.12
2018-02-20T21:52:52.359Z,15.82
2018-02-20T21:55:21.796Z,16.83
2018-02-20T21:57:50.830Z,16.87
2018-02-20T22:00:19.407Z,17.40
2018-02-20T22:02:48.721Z,15.32
2018-02-20T22:05:17.712Z,14.80
2018-02-20T22:07:46.543Z,17.00
2018-02-20T22:10:15.281Z,16.60
2018-02-20T22:12:43.948Z,16.08
2018-02-20T22:15:12.843Z,16.35
2018-02-20T22:17:42.360Z,16.40
2018-02-20T22:20:10.948Z,16.48
2018-02-20T22:22:39.864Z,15.63
2018-02-20T22:25:09.139Z,16.02
2018-02-20T22:27:37.728Z,14.57
2018-02-20T22:30:06.308Z,14.27
2018-02-20T22:32:35.899Z,16.40
2018-02-20T22:35:04.726Z,16.17
2018-02-20T22:37:33.290Z,14.38
2018-02-20T22:40:01.840Z,15.80
2018-02-20T22:42:30.335Z,15.65
2018-02-20T22:44:58.808Z,16.08
2018-02-20T22:47:27.714Z,16.20
2018-02-20T22:49:56.165Z,16.40
2018-02-20T22:52:24.773Z,21.20
2018-02-20T22:54:54.464Z,25.75
2018-02-20T22:57:22.951Z,20.42
2018-02-20T22:59:51.438Z,16.92
2018-02-20T23:02:20.031Z,16.27
2018-02-20T23:04:48.550Z,15.30
2018-02-20T23:07:17.055Z,15.73
2018-02-20T23:09:45.766Z,15.55
2018-02-20T23:12:14.331Z,18.10
2018-02-20T23:14:42.868Z,17.37
2018-02-20T23:17:11.520Z,16.33
2018-02-20T23:19:40.010Z,15.82
2018-02-20T23:22:08.503Z,13.55
2018-02-20T23:24:37.119Z,13.73
2018-02-20T23:27:05.670Z,13.30
2018-02-20T23:29:34.709Z,13.02
2018-02-20T23:32:03.333Z,14.45
2018-02-20T23:34:32.827Z,13.80
2018-02-20T23:37:02.078Z,14.48
2018-02-20T23:39:30.708Z,14.35
2018-02-20T23:41:59.841Z,13.30
2018-02-20T23:44:28.302Z,15.13
2018-02-20T23:46:57.795Z,14.75
2018-02-20T23:49:26.237Z,14.18
2018-02-20T23:51:54.687Z,14.93
2018-02-20T23:54:23.648Z,15.15
2018-02-20T23:56:52.163Z,14.60
2018-02-20T23:59:20.607Z,15.65
